sensor_id;sensor_type;location;lat;lon;timestamp;temperature;humidity
46652;DHT22;32377;52.182;5.398;2023-06-19T00:02:01;22.30;96.60
46652;DHT22;32377;52.182;5.398;2023-06-19T00:04:26;22.40;96.40
46652;DHT22;32377;52.182;5.398;2023-06-19T00:06:53;22.50;96.20
46652;DHT22;32377;52.182;5.398;2023-06-19T00:09:19;22.40;96.60
46652;DHT22;32377;52.182;5.398;2023-06-19T00:11:44;22.40;96.40
46652;DHT22;32377;52.182;5.398;2023-06-19T00:14:10;22.40;96.30
46652;DHT22;32377;52.182;5.398;2023-06-19T00:16:36;22.40;96.40
46652;DHT22;32377;52.182;5.398;2023-06-19T00:19:01;22.40;96.50
46652;DHT22;32377;52.182;5.398;2023-06-19T00:21:29;22.40;96.50
46652;DHT22;32377;52.182;5.398;2023-06-19T00:23:55;22.50;96.50
46652;DHT22;32377;52.182;5.398;2023-06-19T00:26:21;22.60;96.50
46652;DHT22;32377;52.182;5.398;2023-06-19T00:28:51;22.50;96.40
46652;DHT22;32377;52.182;5.398;2023-06-19T00:31:17;22.60;96.60
46652;DHT22;32377;52.182;5.398;2023-06-19T00:33:46;22.50;96.70
46652;DHT22;32377;52.182;5.398;2023-06-19T00:36:21;22.50;96.80
46652;DHT22;32377;52.182;5.398;2023-06-19T00:38:48;22.50;96.90
46652;DHT22;32377;52.182;5.398;2023-06-19T00:41:17;22.50;97.10
46652;DHT22;32377;52.182;5.398;2023-06-19T00:43:43;22.50;97.20
46652;DHT22;32377;52.182;5.398;2023-06-19T00:46:10;22.50;97.40
46652;DHT22;32377;52.182;5.398;2023-06-19T00:48:36;22.50;97.60
46652;DHT22;32377;52.182;5.398;2023-06-19T00:51:02;22.40;97.70
46652;DHT22;32377;52.182;5.398;2023-06-19T00:53:28;22.40;97.90
46652;DHT22;32377;52.182;5.398;2023-06-19T00:55:56;22.30;98.10
46652;DHT22;32377;52.182;5.398;2023-06-19T00:58:23;22.30;98.40
46652;DHT22;32377;52.182;5.398;2023-06-19T01:00:49;22.30;98.70
46652;DHT22;32377;52.182;5.398;2023-06-19T01:03:15;22.30;99.10
46652;DHT22;32377;52.182;5.398;2023-06-19T01:05:41;22.30;99.20
46652;DHT22;32377;52.182;5.398;2023-06-19T01:08:41;22.20;99.40
46652;DHT22;32377;52.182;5.398;2023-06-19T01:11:09;22.20;99.90
46652;DHT22;32377;52.182;5.398;2023-06-19T01:16:04;22.00;99.90
46652;DHT22;32377;52.182;5.398;2023-06-19T01:18:31;21.90;99.90
46652;DHT22;32377;52.182;5.398;2023-06-19T01:21:18;21.90;99.90
46652;DHT22;32377;52.182;5.398;2023-06-19T01:23:44;21.80;99.90
46652;DHT22;32377;52.182;5.398;2023-06-19T01:26:11;21.80;99.90
46652;DHT22;32377;52.182;5.398;2023-06-19T01:28:40;21.70;99.90
46652;DHT22;32377;52.182;5.398;2023-06-19T01:31:28;21.60;99.90
46652;DHT22;32377;52.182;5.398;2023-06-19T01:33:56;21.60;99.90
46652;DHT22;32377;52.182;5.398;2023-06-19T01:36:23;21.60;99.90
46652;DHT22;32377;52.182;5.398;2023-06-19T01:38:50;21.60;99.90
46652;DHT22;32377;52.182;5.398;2023-06-19T01:41:17;21.50;99.90
46652;DHT22;32377;52.182;5.398;2023-06-19T01:43:45;21.40;99.90
46652;DHT22;32377;52.182;5.398;2023-06-19T01:46:10;21.40;99.90
46652;DHT22;32377;52.182;5.398;2023-06-19T01:48:38;21.30;99.90
46652;DHT22;32377;52.182;5.398;2023-06-19T01:51:04;21.20;99.90
46652;DHT22;32377;52.182;5.398;2023-06-19T01:53:31;21.20;99.90
46652;DHT22;32377;52.182;5.398;2023-06-19T01:55:58;21.10;99.90
46652;DHT22;32377;52.182;5.398;2023-06-19T01:58:24;21.10;99.90
46652;DHT22;32377;52.182;5.398;2023-06-19T02:00:49;21.10;99.90
46652;DHT22;32377;52.182;5.398;2023-06-19T02:03:15;21.10;99.90
46652;DHT22;32377;52.182;5.398;2023-06-19T02:05:40;21.20;99.90
46652;DHT22;32377;52.182;5.398;2023-06-19T02:08:06;21.20;99.90
46652;DHT22;32377;52.182;5.398;2023-06-19T02:10:32;21.10;99.90
46652;DHT22;32377;52.182;5.398;2023-06-19T02:12:58;21.00;99.90
46652;DHT22;32377;52.182;5.398;2023-06-19T02:15:23;21.00;99.90
46652;DHT22;32377;52.182;5.398;2023-06-19T02:17:49;21.00;99.90
46652;DHT22;32377;52.182;5.398;2023-06-19T02:20:20;21.00;99.90
46652;DHT22;32377;52.182;5.398;2023-06-19T02:22:46;21.10;99.90
46652;DHT22;32377;52.182;5.398;2023-06-19T02:25:11;21.00;99.90
46652;DHT22;32377;52.182;5.398;2023-06-19T02:27:37;21.00;99.90
46652;DHT22;32377;52.182;5.398;2023-06-19T02:30:03;21.00;99.90
46652;DHT22;32377;52.182;5.398;2023-06-19T02:32:30;20.90;99.90
46652;DHT22;32377;52.182;5.398;2023-06-19T02:34:56;21.00;99.90
46652;DHT22;32377;52.182;5.398;2023-06-19T02:37:21;21.00;99.90
46652;DHT22;32377;52.182;5.398;2023-06-19T02:39:47;21.00;99.90
46652;DHT22;32377;52.182;5.398;2023-06-19T02:42:13;21.00;99.90
46652;DHT22;32377;52.182;5.398;2023-06-19T02:44:38;20.90;99.90
46652;DHT22;32377;52.182;5.398;2023-06-19T02:47:04;21.00;99.90
46652;DHT22;32377;52.182;5.398;2023-06-19T02:49:30;20.90;99.90
46652;DHT22;32377;52.182;5.398;2023-06-19T02:51:55;20.90;99.90
46652;DHT22;32377;52.182;5.398;2023-06-19T02:54:21;20.90;99.90
46652;DHT22;32377;52.182;5.398;2023-06-19T02:56:46;20.90;99.90
46652;DHT22;32377;52.182;5.398;2023-06-19T02:59:12;20.90;99.90
46652;DHT22;32377;52.182;5.398;2023-06-19T03:01:38;20.90;99.90
46652;DHT22;32377;52.182;5.398;2023-06-19T03:04:03;20.80;99.90
46652;DHT22;32377;52.182;5.398;2023-06-19T03:06:29;20.80;99.90
46652;DHT22;32377;52.182;5.398;2023-06-19T03:08:56;20.80;99.90
46652;DHT22;32377;52.182;5.398;2023-06-19T03:11:21;20.90;99.90
46652;DHT22;32377;52.182;5.398;2023-06-19T03:13:50;20.80;99.90
46652;DHT22;32377;52.182;5.398;2023-06-19T03:16:16;20.80;99.90
46652;DHT22;32377;52.182;5.398;2023-06-19T03:18:42;20.80;99.90
46652;DHT22;32377;52.182;5.398;2023-06-19T03:21:10;20.80;99.90
46652;DHT22;32377;52.182;5.398;2023-06-19T03:23:36;20.80;99.90
46652;DHT22;32377;52.182;5.398;2023-06-19T03:26:02;20.80;99.90
46652;DHT22;32377;52.182;5.398;2023-06-19T03:28:27;20.80;99.90
46652;DHT22;32377;52.182;5.398;2023-06-19T03:30:53;20.80;99.90
46652;DHT22;32377;52.182;5.398;2023-06-19T03:33:19;20.80;99.90
46652;DHT22;32377;52.182;5.398;2023-06-19T03:35:44;20.80;99.90
46652;DHT22;32377;52.182;5.398;2023-06-19T03:38:10;20.70;99.90
46652;DHT22;32377;52.182;5.398;2023-06-19T03:40:35;20.70;99.90
46652;DHT22;32377;52.182;5.398;2023-06-19T03:43:01;20.70;99.90
46652;DHT22;32377;52.182;5.398;2023-06-19T03:45:27;20.70;99.90
46652;DHT22;32377;52.182;5.398;2023-06-19T03:47:53;20.70;99.90
46652;DHT22;32377;52.182;5.398;2023-06-19T03:50:18;20.70;99.90
46652;DHT22;32377;52.182;5.398;2023-06-19T03:52:44;20.70;99.90
46652;DHT22;32377;52.182;5.398;2023-06-19T03:58:40;20.50;99.90
46652;DHT22;32377;52.182;5.398;2023-06-19T04:01:06;20.60;99.90
46652;DHT22;32377;52.182;5.398;2023-06-19T04:03:31;20.50;99.90
46652;DHT22;32377;52.182;5.398;2023-06-19T04:05:57;20.50;99.90
46652;DHT22;32377;52.182;5.398;2023-06-19T04:08:22;20.50;99.90
46652;DHT22;32377;52.182;5.398;2023-06-19T04:10:48;20.50;99.90
46652;DHT22;32377;52.182;5.398;2023-06-19T04:13:13;20.50;99.90
46652;DHT22;32377;52.182;5.398;2023-06-19T04:15:39;20.50;99.90
46652;DHT22;32377;52.182;5.398;2023-06-19T04:18:05;20.50;99.90
46652;DHT22;32377;52.182;5.398;2023-06-19T04:20:30;20.50;99.90
46652;DHT22;32377;52.182;5.398;2023-06-19T04:22:56;20.40;99.90
46652;DHT22;32377;52.182;5.398;2023-06-19T04:25:22;20.50;99.90
46652;DHT22;32377;52.182;5.398;2023-06-19T04:27:47;20.40;99.90
46652;DHT22;32377;52.182;5.398;2023-06-19T04:30:13;20.40;99.90
46652;DHT22;32377;52.182;5.398;2023-06-19T04:32:39;20.40;99.90
46652;DHT22;32377;52.182;5.398;2023-06-19T04:35:07;20.40;99.90
46652;DHT22;32377;52.182;5.398;2023-06-19T04:37:32;20.50;99.90
46652;DHT22;32377;52.182;5.398;2023-06-19T04:39:58;20.50;99.90
46652;DHT22;32377;52.182;5.398;2023-06-19T04:42:24;20.40;99.90
46652;DHT22;32377;52.182;5.398;2023-06-19T04:44:51;20.40;99.90
46652;DHT22;32377;52.182;5.398;2023-06-19T04:47:19;20.30;99.90
46652;DHT22;32377;52.182;5.398;2023-06-19T04:49:45;20.40;99.90
46652;DHT22;32377;52.182;5.398;2023-06-19T04:52:10;20.40;99.90
46652;DHT22;32377;52.182;5.398;2023-06-19T04:54:36;20.30;99.90
46652;DHT22;32377;52.182;5.398;2023-06-19T04:57:02;20.30;99.90
46652;DHT22;32377;52.182;5.398;2023-06-19T04:59:28;20.30;99.90
46652;DHT22;32377;52.182;5.398;2023-06-19T05:01:59;20.40;99.90
46652;DHT22;32377;52.182;5.398;2023-06-19T05:04:25;20.30;99.90
46652;DHT22;32377;52.182;5.398;2023-06-19T05:06:50;20.30;99.90
46652;DHT22;32377;52.182;5.398;2023-06-19T05:09:16;20.30;99.90
46652;DHT22;32377;52.182;5.398;2023-06-19T05:11:42;20.20;99.90
46652;DHT22;32377;52.182;5.398;2023-06-19T05:14:08;20.20;99.90
46652;DHT22;32377;52.182;5.398;2023-06-19T05:16:34;20.20;99.90
46652;DHT22;32377;52.182;5.398;2023-06-19T05:18:59;20.30;99.90
46652;DHT22;32377;52.182;5.398;2023-06-19T05:21:25;20.30;99.90
46652;DHT22;32377;52.182;5.398;2023-06-19T05:23:51;20.40;99.90
46652;DHT22;32377;52.182;5.398;2023-06-19T05:26:19;20.50;99.90
46652;DHT22;32377;52.182;5.398;2023-06-19T05:28:44;20.40;99.90
46652;DHT22;32377;52.182;5.398;2023-06-19T05:31:10;20.40;99.90
46652;DHT22;32377;52.182;5.398;2023-06-19T05:33:35;20.40;99.90
46652;DHT22;32377;52.182;5.398;2023-06-19T05:36:01;20.50;99.90
46652;DHT22;32377;52.182;5.398;2023-06-19T05:38:27;20.60;99.90
46652;DHT22;32377;52.182;5.398;2023-06-19T05:40:56;20.60;99.90
46652;DHT22;32377;52.182;5.398;2023-06-19T05:43:21;20.70;99.90
46652;DHT22;32377;52.182;5.398;2023-06-19T05:45:48;20.70;99.90
46652;DHT22;32377;52.182;5.398;2023-06-19T05:48:13;20.70;99.90
46652;DHT22;32377;52.182;5.398;2023-06-19T05:50:39;20.70;99.90
46652;DHT22;32377;52.182;5.398;2023-06-19T05:53:05;20.60;99.90
46652;DHT22;32377;52.182;5.398;2023-06-19T05:55:31;20.50;99.90
46652;DHT22;32377;52.182;5.398;2023-06-19T05:57:56;20.50;99.90
46652;DHT22;32377;52.182;5.398;2023-06-19T06:00:22;20.50;99.90
46652;DHT22;32377;52.182;5.398;2023-06-19T06:02:48;20.50;99.90
46652;DHT22;32377;52.182;5.398;2023-06-19T06:05:14;20.50;99.90
46652;DHT22;32377;52.182;5.398;2023-06-19T06:07:39;20.50;99.90
46652;DHT22;32377;52.182;5.398;2023-06-19T06:10:05;20.50;99.90
46652;DHT22;32377;52.182;5.398;2023-06-19T06:12:34;20.30;99.90
46652;DHT22;32377;52.182;5.398;2023-06-19T06:15:04;20.30;99.90
46652;DHT22;32377;52.182;5.398;2023-06-19T06:17:30;20.30;99.90
46652;DHT22;32377;52.182;5.398;2023-06-19T06:19:55;20.40;99.90
46652;DHT22;32377;52.182;5.398;2023-06-19T06:22:21;20.30;99.90
46652;DHT22;32377;52.182;5.398;2023-06-19T06:24:46;20.30;99.90
46652;DHT22;32377;52.182;5.398;2023-06-19T06:27:12;20.40;99.90
46652;DHT22;32377;52.182;5.398;2023-06-19T06:29:39;20.50;99.90
46652;DHT22;32377;52.182;5.398;2023-06-19T06:32:09;20.70;99.90
46652;DHT22;32377;52.182;5.398;2023-06-19T06:34:35;21.10;99.90
46652;DHT22;32377;52.182;5.398;2023-06-19T06:37:00;21.20;99.90
46652;DHT22;32377;52.182;5.398;2023-06-19T06:39:26;21.30;99.90
46652;DHT22;32377;52.182;5.398;2023-06-19T06:41:52;21.20;99.90
46652;DHT22;32377;52.182;5.398;2023-06-19T06:44:18;21.20;99.90
46652;DHT22;32377;52.182;5.398;2023-06-19T06:46:43;21.20;99.90
46652;DHT22;32377;52.182;5.398;2023-06-19T06:49:09;21.10;99.90
46652;DHT22;32377;52.182;5.398;2023-06-19T06:51:35;21.00;99.90
46652;DHT22;32377;52.182;5.398;2023-06-19T06:54:00;21.00;99.90
46652;DHT22;32377;52.182;5.398;2023-06-19T06:56:26;21.00;99.90
46652;DHT22;32377;52.182;5.398;2023-06-19T06:58:51;20.80;99.90
46652;DHT22;32377;52.182;5.398;2023-06-19T07:01:17;20.80;99.90
46652;DHT22;32377;52.182;5.398;2023-06-19T07:03:43;20.80;99.90
46652;DHT22;32377;52.182;5.398;2023-06-19T07:06:08;20.70;99.90
46652;DHT22;32377;52.182;5.398;2023-06-19T07:08:34;20.80;99.90
46652;DHT22;32377;52.182;5.398;2023-06-19T07:10:59;20.80;99.90
46652;DHT22;32377;52.182;5.398;2023-06-19T07:13:25;20.90;99.90
46652;DHT22;32377;52.182;5.398;2023-06-19T07:15:51;20.80;99.90
46652;DHT22;32377;52.182;5.398;2023-06-19T07:18:17;20.80;99.90
46652;DHT22;32377;52.182;5.398;2023-06-19T07:20:42;20.70;99.90
46652;DHT22;32377;52.182;5.398;2023-06-19T07:23:09;20.70;99.90
46652;DHT22;32377;52.182;5.398;2023-06-19T07:25:35;20.80;99.90
46652;DHT22;32377;52.182;5.398;2023-06-19T07:28:01;20.90;99.90
46652;DHT22;32377;52.182;5.398;2023-06-19T07:30:27;21.00;99.90
46652;DHT22;32377;52.182;5.398;2023-06-19T07:32:52;21.20;99.90
46652;DHT22;32377;52.182;5.398;2023-06-19T07:35:18;21.20;99.90
46652;DHT22;32377;52.182;5.398;2023-06-19T07:37:44;21.30;99.90
46652;DHT22;32377;52.182;5.398;2023-06-19T07:40:11;21.30;99.90
46652;DHT22;32377;52.182;5.398;2023-06-19T07:42:36;21.40;99.90
46652;DHT22;32377;52.182;5.398;2023-06-19T07:45:02;21.40;99.90
46652;DHT22;32377;52.182;5.398;2023-06-19T07:47:28;21.50;99.90
46652;DHT22;32377;52.182;5.398;2023-06-19T07:49:54;21.60;99.90
46652;DHT22;32377;52.182;5.398;2023-06-19T07:52:23;21.70;99.90
46652;DHT22;32377;52.182;5.398;2023-06-19T07:54:57;21.80;99.90
46652;DHT22;32377;52.182;5.398;2023-06-19T07:57:23;21.90;99.90
46652;DHT22;32377;52.182;5.398;2023-06-19T07:59:50;21.90;99.90
46652;DHT22;32377;52.182;5.398;2023-06-19T08:02:16;22.00;99.90
46652;DHT22;32377;52.182;5.398;2023-06-19T08:04:42;22.10;99.90
46652;DHT22;32377;52.182;5.398;2023-06-19T08:07:07;22.20;99.90
46652;DHT22;32377;52.182;5.398;2023-06-19T08:09:33;22.30;99.90
46652;DHT22;32377;52.182;5.398;2023-06-19T08:11:59;22.10;99.90
46652;DHT22;32377;52.182;5.398;2023-06-19T08:14:24;22.30;99.90
46652;DHT22;32377;52.182;5.398;2023-06-19T08:16:50;22.40;99.90
46652;DHT22;32377;52.182;5.398;2023-06-19T08:19:16;22.50;99.90
46652;DHT22;32377;52.182;5.398;2023-06-19T08:21:41;22.80;99.90
46652;DHT22;32377;52.182;5.398;2023-06-19T08:24:07;22.90;99.90
46652;DHT22;32377;52.182;5.398;2023-06-19T08:26:32;23.00;99.90
46652;DHT22;32377;52.182;5.398;2023-06-19T08:28:58;23.00;99.90
46652;DHT22;32377;52.182;5.398;2023-06-19T08:31:23;23.00;99.90
46652;DHT22;32377;52.182;5.398;2023-06-19T08:33:55;23.10;99.90
46652;DHT22;32377;52.182;5.398;2023-06-19T08:36:21;22.90;99.90
46652;DHT22;32377;52.182;5.398;2023-06-19T08:38:47;22.90;99.90
46652;DHT22;32377;52.182;5.398;2023-06-19T08:41:18;22.90;99.90
46652;DHT22;32377;52.182;5.398;2023-06-19T08:43:47;22.80;99.90
46652;DHT22;32377;52.182;5.398;2023-06-19T08:46:16;22.90;99.90
46652;DHT22;32377;52.182;5.398;2023-06-19T08:48:43;23.00;99.90
46652;DHT22;32377;52.182;5.398;2023-06-19T08:51:10;23.00;99.90
46652;DHT22;32377;52.182;5.398;2023-06-19T08:53:47;23.10;99.90
46652;DHT22;32377;52.182;5.398;2023-06-19T08:56:13;23.20;99.90
46652;DHT22;32377;52.182;5.398;2023-06-19T08:58:39;23.30;99.90
46652;DHT22;32377;52.182;5.398;2023-06-19T09:01:05;23.10;99.90
46652;DHT22;32377;52.182;5.398;2023-06-19T09:03:30;23.10;99.90
46652;DHT22;32377;52.182;5.398;2023-06-19T09:05:56;23.20;99.90
46652;DHT22;32377;52.182;5.398;2023-06-19T09:08:22;23.10;99.90
46652;DHT22;32377;52.182;5.398;2023-06-19T09:13:23;23.20;99.90
46652;DHT22;32377;52.182;5.398;2023-06-19T09:15:57;23.40;99.90
46652;DHT22;32377;52.182;5.398;2023-06-19T09:18:24;23.40;99.90
46652;DHT22;32377;52.182;5.398;2023-06-19T09:20:53;23.40;99.90
46652;DHT22;32377;52.182;5.398;2023-06-19T09:23:19;23.50;99.90
46652;DHT22;32377;52.182;5.398;2023-06-19T09:25:50;23.50;99.90
46652;DHT22;32377;52.182;5.398;2023-06-19T09:28:23;23.60;99.90
46652;DHT22;32377;52.182;5.398;2023-06-19T09:31:00;23.50;99.90
46652;DHT22;32377;52.182;5.398;2023-06-19T09:33:28;23.50;99.90
46652;DHT22;32377;52.182;5.398;2023-06-19T09:35:55;23.40;99.90
46652;DHT22;32377;52.182;5.398;2023-06-19T09:38:24;23.40;99.90
46652;DHT22;32377;52.182;5.398;2023-06-19T09:40:52;23.40;99.90
46652;DHT22;32377;52.182;5.398;2023-06-19T09:43:22;23.40;99.90
46652;DHT22;32377;52.182;5.398;2023-06-19T09:45:49;23.30;99.90
46652;DHT22;32377;52.182;5.398;2023-06-19T09:48:19;23.30;99.90
46652;DHT22;32377;52.182;5.398;2023-06-19T09:50:49;23.10;99.90
46652;DHT22;32377;52.182;5.398;2023-06-19T09:53:18;23.20;99.90
46652;DHT22;32377;52.182;5.398;2023-06-19T09:58:39;23.80;99.90
46652;DHT22;32377;52.182;5.398;2023-06-19T10:01:06;23.70;99.90
46652;DHT22;32377;52.182;5.398;2023-06-19T10:03:34;23.70;99.90
46652;DHT22;32377;52.182;5.398;2023-06-19T10:06:01;23.60;99.90
46652;DHT22;32377;52.182;5.398;2023-06-19T10:08:32;23.70;99.90
46652;DHT22;32377;52.182;5.398;2023-06-19T10:10:58;23.90;99.90
46652;DHT22;32377;52.182;5.398;2023-06-19T10:13:34;24.10;99.90
46652;DHT22;32377;52.182;5.398;2023-06-19T10:16:01;24.00;99.90
46652;DHT22;32377;52.182;5.398;2023-06-19T10:18:27;24.00;99.90
46652;DHT22;32377;52.182;5.398;2023-06-19T10:20:54;24.30;99.90
46652;DHT22;32377;52.182;5.398;2023-06-19T10:23:22;24.60;99.90
46652;DHT22;32377;52.182;5.398;2023-06-19T10:25:58;24.40;99.90
46652;DHT22;32377;52.182;5.398;2023-06-19T10:28:29;24.30;99.90
46652;DHT22;32377;52.182;5.398;2023-06-19T10:31:00;24.30;99.90
46652;DHT22;32377;52.182;5.398;2023-06-19T10:33:30;24.50;99.90
46652;DHT22;32377;52.182;5.398;2023-06-19T10:35:59;24.60;99.90
46652;DHT22;32377;52.182;5.398;2023-06-19T10:38:28;24.30;99.70
46652;DHT22;32377;52.182;5.398;2023-06-19T10:40:54;24.40;99.90
46652;DHT22;32377;52.182;5.398;2023-06-19T10:43:22;24.70;99.90
46652;DHT22;32377;52.182;5.398;2023-06-19T10:45:50;24.70;99.80
46652;DHT22;32377;52.182;5.398;2023-06-19T10:48:20;24.80;99.60
46652;DHT22;32377;52.182;5.398;2023-06-19T10:50:47;24.70;99.60
46652;DHT22;32377;52.182;5.398;2023-06-19T10:53:32;24.90;99.70
46652;DHT22;32377;52.182;5.398;2023-06-19T10:55:59;24.90;99.40
46652;DHT22;32377;52.182;5.398;2023-06-19T10:58:26;24.80;99.30
46652;DHT22;32377;52.182;5.398;2023-06-19T11:00:52;24.90;99.30
46652;DHT22;32377;52.182;5.398;2023-06-19T11:03:18;24.90;99.10
46652;DHT22;32377;52.182;5.398;2023-06-19T11:05:45;25.00;99.10
46652;DHT22;32377;52.182;5.398;2023-06-19T11:08:10;24.90;98.60
46652;DHT22;32377;52.182;5.398;2023-06-19T11:10:36;25.00;99.00
46652;DHT22;32377;52.182;5.398;2023-06-19T11:13:02;25.00;99.20
46652;DHT22;32377;52.182;5.398;2023-06-19T11:15:31;25.10;98.40
46652;DHT22;32377;52.182;5.398;2023-06-19T11:17:58;25.10;98.60
46652;DHT22;32377;52.182;5.398;2023-06-19T11:20:25;25.00;97.80
46652;DHT22;32377;52.182;5.398;2023-06-19T11:22:56;25.00;99.00
46652;DHT22;32377;52.182;5.398;2023-06-19T11:25:22;25.20;98.50
46652;DHT22;32377;52.182;5.398;2023-06-19T11:27:48;25.20;98.60
46652;DHT22;32377;52.182;5.398;2023-06-19T11:30:18;25.10;98.70
46652;DHT22;32377;52.182;5.398;2023-06-19T11:32:43;25.10;98.40
46652;DHT22;32377;52.182;5.398;2023-06-19T11:35:11;25.20;98.00
46652;DHT22;32377;52.182;5.398;2023-06-19T11:37:41;25.30;98.50
46652;DHT22;32377;52.182;5.398;2023-06-19T11:40:07;25.60;98.10
46652;DHT22;32377;52.182;5.398;2023-06-19T11:42:48;25.90;97.60
46652;DHT22;32377;52.182;5.398;2023-06-19T11:45:14;25.80;98.10
46652;DHT22;32377;52.182;5.398;2023-06-19T11:47:40;25.90;97.30
46652;DHT22;32377;52.182;5.398;2023-06-19T11:50:06;25.70;97.20
46652;DHT22;32377;52.182;5.398;2023-06-19T11:52:32;25.60;97.10
46652;DHT22;32377;52.182;5.398;2023-06-19T11:54:58;25.50;97.50
46652;DHT22;32377;52.182;5.398;2023-06-19T11:57:23;25.40;97.30
46652;DHT22;32377;52.182;5.398;2023-06-19T11:59:49;25.20;97.40
46652;DHT22;32377;52.182;5.398;2023-06-19T12:02:14;25.00;97.10
46652;DHT22;32377;52.182;5.398;2023-06-19T12:04:40;24.80;97.70
46652;DHT22;32377;52.182;5.398;2023-06-19T12:07:06;24.90;97.50
46652;DHT22;32377;52.182;5.398;2023-06-19T12:09:31;24.80;97.80
46652;DHT22;32377;52.182;5.398;2023-06-19T12:11:58;24.70;97.80
46652;DHT22;32377;52.182;5.398;2023-06-19T12:14:23;24.80;98.60
46652;DHT22;32377;52.182;5.398;2023-06-19T12:16:50;25.20;98.00
46652;DHT22;32377;52.182;5.398;2023-06-19T12:19:15;25.30;97.10
46652;DHT22;32377;52.182;5.398;2023-06-19T12:21:41;25.60;97.10
46652;DHT22;32377;52.182;5.398;2023-06-19T12:24:07;25.80;97.00
46652;DHT22;32377;52.182;5.398;2023-06-19T12:26:35;25.50;96.70
46652;DHT22;32377;52.182;5.398;2023-06-19T12:29:02;25.50;96.80
46652;DHT22;32377;52.182;5.398;2023-06-19T12:31:29;25.70;96.70
46652;DHT22;32377;52.182;5.398;2023-06-19T12:33:55;25.60;96.40
46652;DHT22;32377;52.182;5.398;2023-06-19T12:36:20;25.20;96.90
46652;DHT22;32377;52.182;5.398;2023-06-19T12:38:46;25.20;97.70
46652;DHT22;32377;52.182;5.398;2023-06-19T12:41:13;25.40;98.30
46652;DHT22;32377;52.182;5.398;2023-06-19T12:43:39;25.40;97.20
46652;DHT22;32377;52.182;5.398;2023-06-19T12:46:04;25.00;96.70
46652;DHT22;32377;52.182;5.398;2023-06-19T12:48:30;25.20;96.90
46652;DHT22;32377;52.182;5.398;2023-06-19T12:50:56;25.40;96.90
46652;DHT22;32377;52.182;5.398;2023-06-19T12:53:21;25.50;97.40
46652;DHT22;32377;52.182;5.398;2023-06-19T12:55:52;25.50;95.90
46652;DHT22;32377;52.182;5.398;2023-06-19T12:58:18;25.60;97.10
46652;DHT22;32377;52.182;5.398;2023-06-19T13:00:44;25.90;97.10
46652;DHT22;32377;52.182;5.398;2023-06-19T13:03:10;25.80;96.50
46652;DHT22;32377;52.182;5.398;2023-06-19T13:05:35;25.70;97.10
46652;DHT22;32377;52.182;5.398;2023-06-19T13:08:01;25.90;96.70
46652;DHT22;32377;52.182;5.398;2023-06-19T13:10:27;25.90;96.30
46652;DHT22;32377;52.182;5.398;2023-06-19T13:12:52;26.00;96.40
46652;DHT22;32377;52.182;5.398;2023-06-19T13:15:18;25.80;96.20
46652;DHT22;32377;52.182;5.398;2023-06-19T13:17:43;25.60;96.80
46652;DHT22;32377;52.182;5.398;2023-06-19T13:20:09;25.60;96.90
46652;DHT22;32377;52.182;5.398;2023-06-19T13:22:35;25.60;96.90
46652;DHT22;32377;52.182;5.398;2023-06-19T13:25:01;25.60;96.70
46652;DHT22;32377;52.182;5.398;2023-06-19T13:27:27;25.60;97.20
46652;DHT22;32377;52.182;5.398;2023-06-19T13:29:54;25.70;96.90
46652;DHT22;32377;52.182;5.398;2023-06-19T13:32:20;25.80;97.10
46652;DHT22;32377;52.182;5.398;2023-06-19T13:34:45;25.80;96.80
46652;DHT22;32377;52.182;5.398;2023-06-19T13:37:11;25.40;96.00
46652;DHT22;32377;52.182;5.398;2023-06-19T13:39:36;25.20;96.90
46652;DHT22;32377;52.182;5.398;2023-06-19T13:42:03;25.00;96.60
46652;DHT22;32377;52.182;5.398;2023-06-19T13:44:29;25.10;96.50
46652;DHT22;32377;52.182;5.398;2023-06-19T13:46:54;25.30;96.60
46652;DHT22;32377;52.182;5.398;2023-06-19T13:49:20;25.50;96.70
46652;DHT22;32377;52.182;5.398;2023-06-19T13:51:46;25.50;95.60
46652;DHT22;32377;52.182;5.398;2023-06-19T13:54:11;25.70;96.80
46652;DHT22;32377;52.182;5.398;2023-06-19T13:56:39;25.70;96.50
46652;DHT22;32377;52.182;5.398;2023-06-19T13:59:04;25.70;96.20
46652;DHT22;32377;52.182;5.398;2023-06-19T14:01:31;25.80;96.90
46652;DHT22;32377;52.182;5.398;2023-06-19T14:03:57;25.90;96.50
46652;DHT22;32377;52.182;5.398;2023-06-19T14:06:24;25.80;95.60
46652;DHT22;32377;52.182;5.398;2023-06-19T14:08:50;25.60;95.50
46652;DHT22;32377;52.182;5.398;2023-06-19T14:11:15;25.60;96.20
46652;DHT22;32377;52.182;5.398;2023-06-19T14:13:41;25.90;96.30
46652;DHT22;32377;52.182;5.398;2023-06-19T14:16:07;26.10;95.60
46652;DHT22;32377;52.182;5.398;2023-06-19T14:18:33;26.20;95.60
46652;DHT22;32377;52.182;5.398;2023-06-19T14:20:59;26.20;95.30
46652;DHT22;32377;52.182;5.398;2023-06-19T14:23:24;26.20;95.50
46652;DHT22;32377;52.182;5.398;2023-06-19T14:25:50;26.20;95.30
46652;DHT22;32377;52.182;5.398;2023-06-19T14:28:15;26.20;95.30
46652;DHT22;32377;52.182;5.398;2023-06-19T14:30:41;26.20;94.70
46652;DHT22;32377;52.182;5.398;2023-06-19T14:33:07;25.90;95.50
46652;DHT22;32377;52.182;5.398;2023-06-19T14:35:35;26.10;95.20
46652;DHT22;32377;52.182;5.398;2023-06-19T14:38:01;26.10;94.30
46652;DHT22;32377;52.182;5.398;2023-06-19T14:40:26;26.00;94.70
46652;DHT22;32377;52.182;5.398;2023-06-19T14:42:52;26.10;94.70
46652;DHT22;32377;52.182;5.398;2023-06-19T14:45:18;26.10;94.70
46652;DHT22;32377;52.182;5.398;2023-06-19T14:47:43;26.00;94.60
46652;DHT22;32377;52.182;5.398;2023-06-19T14:50:09;25.80;94.70
46652;DHT22;32377;52.182;5.398;2023-06-19T14:52:35;26.00;95.30
46652;DHT22;32377;52.182;5.398;2023-06-19T14:55:00;26.00;94.80
46652;DHT22;32377;52.182;5.398;2023-06-19T14:57:26;25.90;95.30
46652;DHT22;32377;52.182;5.398;2023-06-19T14:59:52;26.00;95.30
46652;DHT22;32377;52.182;5.398;2023-06-19T15:02:17;26.10;94.70
46652;DHT22;32377;52.182;5.398;2023-06-19T15:04:43;26.00;95.00
46652;DHT22;32377;52.182;5.398;2023-06-19T15:07:08;26.10;94.80
46652;DHT22;32377;52.182;5.398;2023-06-19T15:09:34;25.80;94.50
46652;DHT22;32377;52.182;5.398;2023-06-19T15:11:59;25.70;94.80
46652;DHT22;32377;52.182;5.398;2023-06-19T15:14:26;25.70;94.60
46652;DHT22;32377;52.182;5.398;2023-06-19T15:16:51;25.50;94.80
46652;DHT22;32377;52.182;5.398;2023-06-19T15:19:17;25.70;95.70
46652;DHT22;32377;52.182;5.398;2023-06-19T15:21:42;25.90;94.80
46652;DHT22;32377;52.182;5.398;2023-06-19T15:24:08;25.90;95.00
46652;DHT22;32377;52.182;5.398;2023-06-19T15:26:36;26.00;94.30
46652;DHT22;32377;52.182;5.398;2023-06-19T15:29:02;26.00;94.30
46652;DHT22;32377;52.182;5.398;2023-06-19T15:31:28;25.90;94.50
46652;DHT22;32377;52.182;5.398;2023-06-19T15:33:54;25.90;94.70
46652;DHT22;32377;52.182;5.398;2023-06-19T15:36:19;26.00;95.00
46652;DHT22;32377;52.182;5.398;2023-06-19T15:38:45;25.90;95.10